sensor_id;sensor_type;location;lat;lon;timestamp;P1;durP1;ratioP1;P2;durP2;ratioP2
52686;SDS011;38584;49.426;8.396;2024-02-16T00:01:18;15.05;;;5.28;;
52686;SDS011;38584;49.426;8.396;2024-02-16T00:03:43;14.85;;;4.85;;
52686;SDS011;38584;49.426;8.396;2024-02-16T00:06:08;14.90;;;5.00;;
52686;SDS011;38584;49.426;8.396;2024-02-16T00:08:34;14.82;;;5.13;;
52686;SDS011;38584;49.426;8.396;2024-02-16T00:10:59;14.82;;;4.57;;
52686;SDS011;38584;49.426;8.396;2024-02-16T00:13:28;13.98;;;4.45;;
52686;SDS011;38584;49.426;8.396;2024-02-16T00:15:56;13.93;;;5.10;;
52686;SDS011;38584;49.426;8.396;2024-02-16T00:18:22;14.70;;;4.38;;
52686;SDS011;38584;49.426;8.396;2024-02-16T00:20:47;14.07;;;4.10;;
52686;SDS011;38584;49.426;8.396;2024-02-16T00:23:13;13.10;;;4.05;;
52686;SDS011;38584;49.426;8.396;2024-02-16T00:25:38;12.38;;;4.25;;
52686;SDS011;38584;49.426;8.396;2024-02-16T00:28:08;16.38;;;4.55;;
52686;SDS011;38584;49.426;8.396;2024-02-16T00:30:34;14.95;;;4.85;;
52686;SDS011;38584;49.426;8.396;2024-02-16T00:32:59;16.33;;;4.05;;
52686;SDS011;38584;49.426;8.396;2024-02-16T00:35:25;14.85;;;4.25;;
52686;SDS011;38584;49.426;8.396;2024-02-16T00:37:51;11.68;;;4.40;;
52686;SDS011;38584;49.426;8.396;2024-02-16T00:40:17;14.48;;;4.22;;
52686;SDS011;38584;49.426;8.396;2024-02-16T00:42:45;13.18;;;4.60;;
52686;SDS011;38584;49.426;8.396;2024-02-16T00:45:13;16.45;;;5.30;;
52686;SDS011;38584;49.426;8.396;2024-02-16T00:47:38;13.73;;;4.63;;
52686;SDS011;38584;49.426;8.396;2024-02-16T00:50:04;15.77;;;5.00;;
52686;SDS011;38584;49.426;8.396;2024-02-16T00:52:33;14.07;;;4.22;;
52686;SDS011;38584;49.426;8.396;2024-02-16T00:55:02;19.02;;;5.15;;
52686;SDS011;38584;49.426;8.396;2024-02-16T00:57:29;12.73;;;4.53;;
52686;SDS011;38584;49.426;8.396;2024-02-16T00:59:54;15.52;;;4.68;;
52686;SDS011;38584;49.426;8.396;2024-02-16T01:02:19;16.15;;;4.75;;
52686;SDS011;38584;49.426;8.396;2024-02-16T01:04:45;14.60;;;4.28;;
52686;SDS011;38584;49.426;8.396;2024-02-16T01:07:11;16.67;;;4.75;;
52686;SDS011;38584;49.426;8.396;2024-02-16T01:09:37;14.98;;;4.80;;
52686;SDS011;38584;49.426;8.396;2024-02-16T01:12:02;13.93;;;4.68;;
52686;SDS011;38584;49.426;8.396;2024-02-16T01:14:27;14.05;;;4.65;;
52686;SDS011;38584;49.426;8.396;2024-02-16T01:16:54;15.38;;;5.13;;
52686;SDS011;38584;49.426;8.396;2024-02-16T01:19:19;13.20;;;4.90;;
52686;SDS011;38584;49.426;8.396;2024-02-16T01:21:44;13.02;;;4.72;;
52686;SDS011;38584;49.426;8.396;2024-02-16T01:24:15;14.13;;;4.85;;
52686;SDS011;38584;49.426;8.396;2024-02-16T01:26:41;16.05;;;4.97;;
52686;SDS011;38584;49.426;8.396;2024-02-16T01:29:07;16.38;;;5.50;;
52686;SDS011;38584;49.426;8.396;2024-02-16T01:31:32;16.25;;;5.28;;
52686;SDS011;38584;49.426;8.396;2024-02-16T01:33:57;17.27;;;6.20;;
52686;SDS011;38584;49.426;8.396;2024-02-16T01:36:23;16.30;;;5.82;;
52686;SDS011;38584;49.426;8.396;2024-02-16T01:38:48;19.83;;;6.30;;
52686;SDS011;38584;49.426;8.396;2024-02-16T01:41:13;15.45;;;5.47;;
52686;SDS011;38584;49.426;8.396;2024-02-16T01:43:40;17.05;;;5.53;;
52686;SDS011;38584;49.426;8.396;2024-02-16T01:46:05;16.63;;;5.78;;
52686;SDS011;38584;49.426;8.396;2024-02-16T01:48:33;13.98;;;5.65;;
52686;SDS011;38584;49.426;8.396;2024-02-16T01:50:59;14.82;;;5.03;;
52686;SDS011;38584;49.426;8.396;2024-02-16T01:53:26;14.70;;;5.05;;
52686;SDS011;38584;49.426;8.396;2024-02-16T01:55:52;14.43;;;4.90;;
52686;SDS011;38584;49.426;8.396;2024-02-16T01:58:17;14.23;;;5.50;;
52686;SDS011;38584;49.426;8.396;2024-02-16T02:00:43;15.30;;;4.72;;
52686;SDS011;38584;49.426;8.396;2024-02-16T02:03:14;16.10;;;4.90;;
52686;SDS011;38584;49.426;8.396;2024-02-16T02:05:47;15.23;;;4.75;;
52686;SDS011;38584;49.426;8.396;2024-02-16T02:08:12;15.20;;;5.03;;
52686;SDS011;38584;49.426;8.396;2024-02-16T02:10:42;11.68;;;4.18;;
52686;SDS011;38584;49.426;8.396;2024-02-16T02:13:07;17.95;;;4.45;;
52686;SDS011;38584;49.426;8.396;2024-02-16T02:15:36;12.00;;;4.45;;
52686;SDS011;38584;49.426;8.396;2024-02-16T02:18:01;15.80;;;4.38;;
52686;SDS011;38584;49.426;8.396;2024-02-16T02:20:29;13.93;;;4.35;;
52686;SDS011;38584;49.426;8.396;2024-02-16T02:22:55;14.27;;;4.32;;
52686;SDS011;38584;49.426;8.396;2024-02-16T02:25:20;15.20;;;4.38;;
52686;SDS011;38584;49.426;8.396;2024-02-16T02:27:46;15.75;;;4.50;;
52686;SDS011;38584;49.426;8.396;2024-02-16T02:30:11;12.95;;;4.10;;
52686;SDS011;38584;49.426;8.396;2024-02-16T02:32:43;14.60;;;4.28;;
52686;SDS011;38584;49.426;8.396;2024-02-16T02:35:08;11.52;;;3.65;;
52686;SDS011;38584;49.426;8.396;2024-02-16T02:37:34;13.68;;;4.40;;
52686;SDS011;38584;49.426;8.396;2024-02-16T02:39:59;13.90;;;4.20;;
52686;SDS011;38584;49.426;8.396;2024-02-16T02:42:27;14.45;;;4.43;;
52686;SDS011;38584;49.426;8.396;2024-02-16T02:44:53;14.65;;;4.75;;
52686;SDS011;38584;49.426;8.396;2024-02-16T02:47:18;12.63;;;4.65;;
52686;SDS011;38584;49.426;8.396;2024-02-16T02:49:44;13.27;;;4.78;;
52686;SDS011;38584;49.426;8.396;2024-02-16T02:52:09;15.25;;;5.05;;
52686;SDS011;38584;49.426;8.396;2024-02-16T02:54:35;14.23;;;4.80;;
52686;SDS011;38584;49.426;8.396;2024-02-16T02:57:01;14.98;;;5.15;;
52686;SDS011;38584;49.426;8.396;2024-02-16T02:59:27;22.98;;;5.03;;
52686;SDS011;38584;49.426;8.396;2024-02-16T03:01:52;14.75;;;5.28;;
52686;SDS011;38584;49.426;8.396;2024-02-16T03:04:17;14.77;;;5.10;;
52686;SDS011;38584;49.426;8.396;2024-02-16T03:06:43;15.35;;;5.47;;
52686;SDS011;38584;49.426;8.396;2024-02-16T03:09:11;17.58;;;5.22;;
52686;SDS011;38584;49.426;8.396;2024-02-16T03:11:49;17.60;;;5.90;;
52686;SDS011;38584;49.426;8.396;2024-02-16T03:14:17;14.57;;;5.65;;
52686;SDS011;38584;49.426;8.396;2024-02-16T03:16:46;19.77;;;6.13;;
52686;SDS011;38584;49.426;8.396;2024-02-16T03:19:11;15.85;;;5.55;;
52686;SDS011;38584;49.426;8.396;2024-02-16T03:21:39;19.77;;;5.65;;
52686;SDS011;38584;49.426;8.396;2024-02-16T03:24:05;16.45;;;6.00;;
52686;SDS011;38584;49.426;8.396;2024-02-16T03:26:30;15.40;;;5.47;;
52686;SDS011;38584;49.426;8.396;2024-02-16T03:29:00;16.00;;;5.30;;
52686;SDS011;38584;49.426;8.396;2024-02-16T03:31:28;16.45;;;6.13;;
52686;SDS011;38584;49.426;8.396;2024-02-16T03:33:57;14.82;;;5.80;;
52686;SDS011;38584;49.426;8.396;2024-02-16T03:36:23;17.52;;;6.25;;
52686;SDS011;38584;49.426;8.396;2024-02-16T03:38:49;16.15;;;6.22;;
52686;SDS011;38584;49.426;8.396;2024-02-16T03:41:17;15.75;;;6.03;;
52686;SDS011;38584;49.426;8.396;2024-02-16T03:43:44;15.40;;;6.32;;
52686;SDS011;38584;49.426;8.396;2024-02-16T03:46:13;18.45;;;6.53;;
52686;SDS011;38584;49.426;8.396;2024-02-16T03:48:41;15.13;;;6.05;;
52686;SDS011;38584;49.426;8.396;2024-02-16T03:51:06;18.20;;;5.97;;
52686;SDS011;38584;49.426;8.396;2024-02-16T03:53:31;16.80;;;6.13;;
52686;SDS011;38584;49.426;8.396;2024-02-16T03:55:57;14.98;;;5.55;;
52686;SDS011;38584;49.426;8.396;2024-02-16T03:58:23;14.30;;;5.35;;
52686;SDS011;38584;49.426;8.396;2024-02-16T04:00:49;15.55;;;5.50;;
52686;SDS011;38584;49.426;8.396;2024-02-16T04:03:14;14.23;;;5.22;;
52686;SDS011;38584;49.426;8.396;2024-02-16T04:05:40;15.10;;;5.35;;
52686;SDS011;38584;49.426;8.396;2024-02-16T04:08:12;12.05;;;4.78;;
52686;SDS011;38584;49.426;8.396;2024-02-16T04:10:37;12.60;;;4.80;;
52686;SDS011;38584;49.426;8.396;2024-02-16T04:13:05;11.40;;;4.20;;
52686;SDS011;38584;49.426;8.396;2024-02-16T04:15:37;12.98;;;4.40;;
52686;SDS011;38584;49.426;8.396;2024-02-16T04:18:03;11.93;;;4.00;;
52686;SDS011;38584;49.426;8.396;2024-02-16T04:20:28;10.38;;;3.67;;
52686;SDS011;38584;49.426;8.396;2024-02-16T04:22:54;10.52;;;3.70;;
52686;SDS011;38584;49.426;8.396;2024-02-16T04:25:19;11.52;;;3.88;;
52686;SDS011;38584;49.426;8.396;2024-02-16T04:27:44;11.57;;;3.92;;
52686;SDS011;38584;49.426;8.396;2024-02-16T04:30:10;13.15;;;3.92;;
52686;SDS011;38584;49.426;8.396;2024-02-16T04:32:35;13.15;;;3.90;;
52686;SDS011;38584;49.426;8.396;2024-02-16T04:35:00;10.45;;;3.13;;
52686;SDS011;38584;49.426;8.396;2024-02-16T04:37:26;10.82;;;3.85;;
52686;SDS011;38584;49.426;8.396;2024-02-16T04:39:54;18.55;;;4.28;;
52686;SDS011;38584;49.426;8.396;2024-02-16T04:42:23;13.10;;;4.20;;
52686;SDS011;38584;49.426;8.396;2024-02-16T04:44:48;16.90;;;4.45;;
52686;SDS011;38584;49.426;8.396;2024-02-16T04:47:26;11.38;;;4.00;;
52686;SDS011;38584;49.426;8.396;2024-02-16T04:49:52;11.73;;;4.10;;
52686;SDS011;38584;49.426;8.396;2024-02-16T04:52:17;14.25;;;4.55;;
52686;SDS011;38584;49.426;8.396;2024-02-16T04:54:42;14.75;;;4.65;;
52686;SDS011;38584;49.426;8.396;2024-02-16T04:57:08;14.35;;;4.45;;
52686;SDS011;38584;49.426;8.396;2024-02-16T04:59:33;12.57;;;4.50;;
52686;SDS011;38584;49.426;8.396;2024-02-16T05:01:58;14.25;;;5.15;;
52686;SDS011;38584;49.426;8.396;2024-02-16T05:04:24;13.73;;;5.13;;
52686;SDS011;38584;49.426;8.396;2024-02-16T05:06:49;10.95;;;4.40;;
52686;SDS011;38584;49.426;8.396;2024-02-16T05:09:16;14.20;;;4.85;;
52686;SDS011;38584;49.426;8.396;2024-02-16T05:11:45;15.15;;;4.78;;
52686;SDS011;38584;49.426;8.396;2024-02-16T05:14:19;12.63;;;4.70;;
52686;SDS011;38584;49.426;8.396;2024-02-16T05:16:45;12.60;;;4.63;;
52686;SDS011;38584;49.426;8.396;2024-02-16T05:19:19;13.18;;;4.50;;
52686;SDS011;38584;49.426;8.396;2024-02-16T05:21:45;11.88;;;4.32;;
52686;SDS011;38584;49.426;8.396;2024-02-16T05:24:14;16.90;;;4.90;;
52686;SDS011;38584;49.426;8.396;2024-02-16T05:26:46;13.23;;;4.40;;
52686;SDS011;38584;49.426;8.396;2024-02-16T05:29:11;12.15;;;4.53;;
52686;SDS011;38584;49.426;8.396;2024-02-16T05:31:40;15.38;;;5.25;;
52686;SDS011;38584;49.426;8.396;2024-02-16T05:34:05;13.70;;;4.80;;
52686;SDS011;38584;49.426;8.396;2024-02-16T05:36:30;11.77;;;4.82;;
52686;SDS011;38584;49.426;8.396;2024-02-16T05:39:00;18.50;;;5.18;;
52686;SDS011;38584;49.426;8.396;2024-02-16T05:41:34;15.60;;;5.20;;
52686;SDS011;38584;49.426;8.396;2024-02-16T05:44:01;14.30;;;5.15;;
52686;SDS011;38584;49.426;8.396;2024-02-16T05:46:27;13.27;;;5.10;;
52686;SDS011;38584;49.426;8.396;2024-02-16T05:48:53;14.60;;;5.97;;
52686;SDS011;38584;49.426;8.396;2024-02-16T05:51:18;14.38;;;5.70;;
52686;SDS011;38584;49.426;8.396;2024-02-16T05:53:46;14.90;;;5.82;;
52686;SDS011;38584;49.426;8.396;2024-02-16T05:56:12;16.92;;;6.30;;
52686;SDS011;38584;49.426;8.396;2024-02-16T05:58:37;19.73;;;6.03;;
52686;SDS011;38584;49.426;8.396;2024-02-16T06:01:02;15.90;;;6.40;;
52686;SDS011;38584;49.426;8.396;2024-02-16T06:03:28;16.13;;;6.57;;
52686;SDS011;38584;49.426;8.396;2024-02-16T06:05:53;15.43;;;6.00;;
52686;SDS011;38584;49.426;8.396;2024-02-16T06:08:18;16.38;;;6.18;;
52686;SDS011;38584;49.426;8.396;2024-02-16T06:10:44;15.73;;;5.80;;
52686;SDS011;38584;49.426;8.396;2024-02-16T06:13:15;17.48;;;5.80;;
52686;SDS011;38584;49.426;8.396;2024-02-16T06:15:41;15.70;;;5.97;;
52686;SDS011;38584;49.426;8.396;2024-02-16T06:18:09;16.95;;;6.25;;
52686;SDS011;38584;49.426;8.396;2024-02-16T06:20:35;16.63;;;6.22;;
52686;SDS011;38584;49.426;8.396;2024-02-16T06:23:00;18.08;;;6.65;;
52686;SDS011;38584;49.426;8.396;2024-02-16T06:25:26;16.83;;;6.57;;
52686;SDS011;38584;49.426;8.396;2024-02-16T06:27:54;18.55;;;6.35;;
52686;SDS011;38584;49.426;8.396;2024-02-16T06:30:22;14.35;;;6.00;;
52686;SDS011;38584;49.426;8.396;2024-02-16T06:32:48;17.38;;;6.35;;
52686;SDS011;38584;49.426;8.396;2024-02-16T06:35:13;17.65;;;6.22;;
52686;SDS011;38584;49.426;8.396;2024-02-16T06:37:39;15.35;;;6.45;;
52686;SDS011;38584;49.426;8.396;2024-02-16T06:40:07;15.60;;;6.30;;
52686;SDS011;38584;49.426;8.396;2024-02-16T06:42:36;16.30;;;7.07;;
52686;SDS011;38584;49.426;8.396;2024-02-16T06:45:02;16.95;;;7.78;;
52686;SDS011;38584;49.426;8.396;2024-02-16T06:47:36;14.98;;;7.63;;
52686;SDS011;38584;49.426;8.396;2024-02-16T06:50:01;17.40;;;7.57;;
52686;SDS011;38584;49.426;8.396;2024-02-16T06:52:29;17.33;;;6.75;;
52686;SDS011;38584;49.426;8.396;2024-02-16T06:54:57;16.27;;;6.50;;
52686;SDS011;38584;49.426;8.396;2024-02-16T06:57:23;16.98;;;6.97;;
52686;SDS011;38584;49.426;8.396;2024-02-16T06:59:53;16.75;;;6.18;;
52686;SDS011;38584;49.426;8.396;2024-02-16T07:02:18;16.27;;;5.78;;
52686;SDS011;38584;49.426;8.396;2024-02-16T07:04:44;17.48;;;6.38;;
52686;SDS011;38584;49.426;8.396;2024-02-16T07:07:10;12.88;;;5.90;;
52686;SDS011;38584;49.426;8.396;2024-02-16T07:09:39;14.23;;;5.45;;
52686;SDS011;38584;49.426;8.396;2024-02-16T07:12:04;16.02;;;5.28;;
52686;SDS011;38584;49.426;8.396;2024-02-16T07:14:31;15.18;;;5.72;;
52686;SDS011;38584;49.426;8.396;2024-02-16T07:16:57;16.90;;;5.50;;
52686;SDS011;38584;49.426;8.396;2024-02-16T07:19:22;14.68;;;5.53;;
52686;SDS011;38584;49.426;8.396;2024-02-16T07:21:47;13.85;;;5.82;;
52686;SDS011;38584;49.426;8.396;2024-02-16T07:24:13;16.55;;;5.97;;
52686;SDS011;38584;49.426;8.396;2024-02-16T07:26:40;16.23;;;6.20;;
52686;SDS011;38584;49.426;8.396;2024-02-16T07:29:08;17.25;;;6.55;;
52686;SDS011;38584;49.426;8.396;2024-02-16T07:31:34;16.98;;;6.75;;
52686;SDS011;38584;49.426;8.396;2024-02-16T07:34:00;18.52;;;6.32;;
52686;SDS011;38584;49.426;8.396;2024-02-16T07:36:31;14.82;;;6.53;;
52686;SDS011;38584;49.426;8.396;2024-02-16T07:38:59;16.38;;;7.13;;
52686;SDS011;38584;49.426;8.396;2024-02-16T07:41:25;21.92;;;7.30;;
52686;SDS011;38584;49.426;8.396;2024-02-16T07:43:50;18.50;;;7.20;;
52686;SDS011;38584;49.426;8.396;2024-02-16T07:46:16;20.38;;;7.13;;
52686;SDS011;38584;49.426;8.396;2024-02-16T07:48:45;17.75;;;7.00;;
52686;SDS011;38584;49.426;8.396;2024-02-16T07:51:10;17.17;;;7.35;;
52686;SDS011;38584;49.426;8.396;2024-02-16T07:53:35;20.80;;;7.00;;
52686;SDS011;38584;49.426;8.396;2024-02-16T07:56:01;19.80;;;7.13;;
52686;SDS011;38584;49.426;8.396;2024-02-16T07:58:29;18.00;;;6.85;;
52686;SDS011;38584;49.426;8.396;2024-02-16T08:00:55;14.95;;;7.13;;
52686;SDS011;38584;49.426;8.396;2024-02-16T08:03:20;15.85;;;6.80;;
52686;SDS011;38584;49.426;8.396;2024-02-16T08:05:45;18.45;;;7.32;;
52686;SDS011;38584;49.426;8.396;2024-02-16T08:08:11;16.55;;;6.88;;
52686;SDS011;38584;49.426;8.396;2024-02-16T08:10:36;16.45;;;6.80;;
52686;SDS011;38584;49.426;8.396;2024-02-16T08:13:02;18.33;;;6.85;;
52686;SDS011;38584;49.426;8.396;2024-02-16T08:15:27;20.35;;;7.22;;
52686;SDS011;38584;49.426;8.396;2024-02-16T08:17:55;16.98;;;6.93;;
52686;SDS011;38584;49.426;8.396;2024-02-16T08:20:21;17.90;;;6.63;;
52686;SDS011;38584;49.426;8.396;2024-02-16T08:22:46;17.70;;;7.15;;
52686;SDS011;38584;49.426;8.396;2024-02-16T08:25:17;18.40;;;6.70;;
52686;SDS011;38584;49.426;8.396;2024-02-16T08:27:43;20.73;;;7.03;;
52686;SDS011;38584;49.426;8.396;2024-02-16T08:30:11;18.58;;;6.90;;
52686;SDS011;38584;49.426;8.396;2024-02-16T08:32:37;15.15;;;6.88;;
52686;SDS011;38584;49.426;8.396;2024-02-16T08:35:02;16.52;;;6.38;;
52686;SDS011;38584;49.426;8.396;2024-02-16T08:37:31;16.42;;;6.22;;
52686;SDS011;38584;49.426;8.396;2024-02-16T08:39:56;15.77;;;6.85;;
52686;SDS011;38584;49.426;8.396;2024-02-16T08:42:22;17.83;;;5.88;;
52686;SDS011;38584;49.426;8.396;2024-02-16T08:44:48;21.33;;;6.30;;
52686;SDS011;38584;49.426;8.396;2024-02-16T08:47:20;13.63;;;5.57;;
52686;SDS011;38584;49.426;8.396;2024-02-16T08:49:47;17.98;;;7.80;;
52686;SDS011;38584;49.426;8.396;2024-02-16T08:52:12;30.67;;;13.38;;
52686;SDS011;38584;49.426;8.396;2024-02-16T08:54:37;40.13;;;17.77;;
52686;SDS011;38584;49.426;8.396;2024-02-16T08:57:03;29.77;;;12.43;;
52686;SDS011;38584;49.426;8.396;2024-02-16T08:59:28;16.88;;;7.65;;
52686;SDS011;38584;49.426;8.396;2024-02-16T09:01:55;16.58;;;7.10;;
52686;SDS011;38584;49.426;8.396;2024-02-16T09:04:20;15.82;;;6.50;;
52686;SDS011;38584;49.426;8.396;2024-02-16T09:06:45;14.00;;;6.22;;
52686;SDS011;38584;49.426;8.396;2024-02-16T09:09:17;17.30;;;6.40;;
52686;SDS011;38584;49.426;8.396;2024-02-16T09:11:43;16.35;;;6.68;;
52686;SDS011;38584;49.426;8.396;2024-02-16T09:14:08;19.35;;;7.22;;
52686;SDS011;38584;49.426;8.396;2024-02-16T09:16:33;17.63;;;7.68;;
52686;SDS011;38584;49.426;8.396;2024-02-16T09:18:59;17.27;;;8.40;;
52686;SDS011;38584;49.426;8.396;2024-02-16T09:21:28;15.95;;;8.30;;
52686;SDS011;38584;49.426;8.396;2024-02-16T09:23:54;17.48;;;8.15;;
52686;SDS011;38584;49.426;8.396;2024-02-16T09:26:27;18.77;;;9.20;;
52686;SDS011;38584;49.426;8.396;2024-02-16T09:28:56;18.13;;;7.97;;
52686;SDS011;38584;49.426;8.396;2024-02-16T09:31:22;17.48;;;7.07;;
52686;SDS011;38584;49.426;8.396;2024-02-16T09:33:48;13.68;;;6.07;;
52686;SDS011;38584;49.426;8.396;2024-02-16T09:36:16;18.45;;;6.40;;
52686;SDS011;38584;49.426;8.396;2024-02-16T09:38:41;13.68;;;5.35;;
52686;SDS011;38584;49.426;8.396;2024-02-16T09:41:13;15.88;;;6.43;;
52686;SDS011;38584;49.426;8.396;2024-02-16T09:43:40;13.85;;;5.55;;
52686;SDS011;38584;49.426;8.396;2024-02-16T09:46:06;16.95;;;5.38;;
52686;SDS011;38584;49.426;8.396;2024-02-16T09:48:31;12.75;;;4.90;;
52686;SDS011;38584;49.426;8.396;2024-02-16T09:51:03;12.63;;;5.15;;
52686;SDS011;38584;49.426;8.396;2024-02-16T09:53:30;14.13;;;4.65;;
52686;SDS011;38584;49.426;8.396;2024-02-16T09:55:55;12.45;;;4.72;;
52686;SDS011;38584;49.426;8.396;2024-02-16T09:58:21;11.52;;;4.60;;
52686;SDS011;38584;49.426;8.396;2024-02-16T10:00:56;12.35;;;4.82;;
52686;SDS011;38584;49.426;8.396;2024-02-16T10:03:25;14.70;;;4.63;;
52686;SDS011;38584;49.426;8.396;2024-02-16T10:06:04;13.15;;;4.60;;
52686;SDS011;38584;49.426;8.396;2024-02-16T10:08:31;14.05;;;4.50;;
52686;SDS011;38584;49.426;8.396;2024-02-16T10:11:03;13.95;;;4.70;;
52686;SDS011;38584;49.426;8.396;2024-02-16T10:13:30;13.77;;;4.70;;
52686;SDS011;38584;49.426;8.396;2024-02-16T10:16:06;11.13;;;4.22;;
52686;SDS011;38584;49.426;8.396;2024-02-16T10:18:37;13.38;;;4.05;;
52686;SDS011;38584;49.426;8.396;2024-02-16T10:21:03;25.85;;;4.15;;
52686;SDS011;38584;49.426;8.396;2024-02-16T10:23:29;10.50;;;3.17;;
52686;SDS011;38584;49.426;8.396;2024-02-16T10:25:54;14.02;;;3.38;;
52686;SDS011;38584;49.426;8.396;2024-02-16T10:28:28;10.55;;;3.05;;
52686;SDS011;38584;49.426;8.396;2024-02-16T10:30:59;18.73;;;3.30;;
52686;SDS011;38584;49.426;8.396;2024-02-16T10:33:39;11.38;;;3.35;;
52686;SDS011;38584;49.426;8.396;2024-02-16T10:36:07;12.02;;;3.25;;
52686;SDS011;38584;49.426;8.396;2024-02-16T10:38:33;12.02;;;3.25;;
52686;SDS011;38584;49.426;8.396;2024-02-16T10:41:01;9.35;;;2.85;;
52686;SDS011;38584;49.426;8.396;2024-02-16T10:43:26;10.55;;;3.40;;
52686;SDS011;38584;49.426;8.396;2024-02-16T10:45:52;11.30;;;2.97;;
52686;SDS011;38584;49.426;8.396;2024-02-16T10:48:18;11.45;;;3.17;;
52686;SDS011;38584;49.426;8.396;2024-02-16T10:50:44;9.45;;;3.05;;
52686;SDS011;38584;49.426;8.396;2024-02-16T10:53:28;10.70;;;3.00;;
52686;SDS011;38584;49.426;8.396;2024-02-16T10:56:06;10.75;;;3.25;;
52686;SDS011;38584;49.426;8.396;2024-02-16T10:58:32;9.30;;;2.75;;
52686;SDS011;38584;49.426;8.396;2024-02-16T11:01:08;12.82;;;2.80;;
52686;SDS011;38584;49.426;8.396;2024-02-16T11:03:43;11.90;;;2.85;;
52686;SDS011;38584;49.426;8.396;2024-02-16T11:06:18;10.43;;;2.95;;
52686;SDS011;38584;49.426;8.396;2024-02-16T11:08:43;9.57;;;3.00;;
52686;SDS011;38584;49.426;8.396;2024-02-16T11:11:22;9.60;;;2.50;;
52686;SDS011;38584;49.426;8.396;2024-02-16T11:13:47;12.90;;;2.70;;
52686;SDS011;38584;49.426;8.396;2024-02-16T11:16:13;10.43;;;2.63;;
52686;SDS011;38584;49.426;8.396;2024-02-16T11:18:42;11.13;;;3.10;;
52686;SDS011;38584;49.426;8.396;2024-02-16T11:21:14;9.93;;;2.67;;
52686;SDS011;38584;49.426;8.396;2024-02-16T11:23:40;16.05;;;3.45;;
52686;SDS011;38584;49.426;8.396;2024-02-16T11:26:08;10.43;;;2.88;;
52686;SDS011;38584;49.426;8.396;2024-02-16T11:28:43;18.58;;;3.35;;
52686;SDS011;38584;49.426;8.396;2024-02-16T11:31:16;11.57;;;2.83;;
52686;SDS011;38584;49.426;8.396;2024-02-16T11:33:44;10.38;;;2.75;;
52686;SDS011;38584;49.426;8.396;2024-02-16T11:36:16;10.73;;;2.42;;
52686;SDS011;38584;49.426;8.396;2024-02-16T11:38:47;11.32;;;2.80;;
52686;SDS011;38584;49.426;8.396;2024-02-16T11:41:16;8.05;;;2.72;;
52686;SDS011;38584;49.426;8.396;2024-02-16T11:43:42;10.20;;;2.58;;
52686;SDS011;38584;49.426;8.396;2024-02-16T11:46:14;11.32;;;2.70;;
52686;SDS011;38584;49.426;8.396;2024-02-16T11:48:40;11.25;;;2.63;;
52686;SDS011;38584;49.426;8.396;2024-02-16T11:51:05;14.50;;;2.65;;
52686;SDS011;38584;49.426;8.396;2024-02-16T11:53:31;11.07;;;2.47;;
52686;SDS011;38584;49.426;8.396;2024-02-16T11:55:57;9.75;;;2.60;;
52686;SDS011;38584;49.426;8.396;2024-02-16T11:58:23;12.55;;;2.85;;
52686;SDS011;38584;49.426;8.396;2024-02-16T12:00:49;11.02;;;2.83;;
52686;SDS011;38584;49.426;8.396;2024-02-16T12:03:19;12.25;;;2.70;;
52686;SDS011;38584;49.426;8.396;2024-02-16T12:05:55;11.88;;;2.60;;
52686;SDS011;38584;49.426;8.396;2024-02-16T12:08:31;9.13;;;2.28;;
52686;SDS011;38584;49.426;8.396;2024-02-16T12:10:58;11.45;;;2.58;;
52686;SDS011;38584;49.426;8.396;2024-02-16T12:13:24;10.57;;;2.50;;
52686;SDS011;38584;49.426;8.396;2024-02-16T12:15:50;12.50;;;2.28;;
52686;SDS011;38584;49.426;8.396;2024-02-16T12:18:25;12.00;;;2.30;;
52686;SDS011;38584;49.426;8.396;2024-02-16T12:20:58;13.77;;;2.65;;
52686;SDS011;38584;49.426;8.396;2024-02-16T12:23:24;9.83;;;2.60;;
52686;SDS011;38584;49.426;8.396;2024-02-16T12:25:50;13.23;;;2.70;;
52686;SDS011;38584;49.426;8.396;2024-02-16T12:28:18;11.45;;;2.35;;
52686;SDS011;38584;49.426;8.396;2024-02-16T12:30:45;11.00;;;2.60;;
52686;SDS011;38584;49.426;8.396;2024-02-16T12:33:15;15.93;;;2.50;;
52686;SDS011;38584;49.426;8.396;2024-02-16T12:35:47;11.35;;;2.50;;
52686;SDS011;38584;49.426;8.396;2024-02-16T12:38:12;10.77;;;2.13;;
52686;SDS011;38584;49.426;8.396;2024-02-16T12:40:38;11.55;;;2.35;;
52686;SDS011;38584;49.426;8.396;2024-02-16T12:43:03;14.63;;;2.70;;
52686;SDS011;38584;49.426;8.396;2024-02-16T12:45:28;13.88;;;2.30;;
52686;SDS011;38584;49.426;8.396;2024-02-16T12:47:54;15.50;;;2.80;;
52686;SDS011;38584;49.426;8.396;2024-02-16T12:50:19;9.48;;;2.42;;
52686;SDS011;38584;49.426;8.396;2024-02-16T12:52:44;11.73;;;2.50;;
52686;SDS011;38584;49.426;8.396;2024-02-16T12:55:10;11.48;;;2.75;;
52686;SDS011;38584;49.426;8.396;2024-02-16T12:57:48;7.72;;;2.22;;
52686;SDS011;38584;49.426;8.396;2024-02-16T13:00:14;16.45;;;2.83;;
52686;SDS011;38584;49.426;8.396;2024-02-16T13:02:40;8.15;;;2.45;;
52686;SDS011;38584;49.426;8.396;2024-02-16T13:05:05;7.68;;;2.50;;
52686;SDS011;38584;49.426;8.396;2024-02-16T13:07:31;11.68;;;2.53;;
52686;SDS011;38584;49.426;8.396;2024-02-16T13:09:56;8.18;;;2.10;;
52686;SDS011;38584;49.426;8.396;2024-02-16T13:12:30;12.90;;;2.75;;
52686;SDS011;38584;49.426;8.396;2024-02-16T13:14:56;14.80;;;2.88;;
52686;SDS011;38584;49.426;8.396;2024-02-16T13:17:22;12.90;;;2.47;;
52686;SDS011;38584;49.426;8.396;2024-02-16T13:19:47;9.00;;;2.28;;
52686;SDS011;38584;49.426;8.396;2024-02-16T13:22:13;11.70;;;2.53;;
52686;SDS011;38584;49.426;8.396;2024-02-16T13:24:42;9.82;;;2.17;;
52686;SDS011;38584;49.426;8.396;2024-02-16T13:27:10;10.57;;;2.30;;
52686;SDS011;38584;49.426;8.396;2024-02-16T13:29:38;13.15;;;2.40;;
52686;SDS011;38584;49.426;8.396;2024-02-16T13:32:10;14.40;;;2.40;;
52686;SDS011;38584;49.426;8.396;2024-02-16T13:34:38;12.52;;;2.45;;
52686;SDS011;38584;49.426;8.396;2024-02-16T13:37:04;7.68;;;2.25;;
52686;SDS011;38584;49.426;8.396;2024-02-16T13:39:33;6.57;;;1.88;;
52686;SDS011;38584;49.426;8.396;2024-02-16T13:41:58;13.35;;;2.30;;
52686;SDS011;38584;49.426;8.396;2024-02-16T13:44:23;9.18;;;2.22;;
52686;SDS011;38584;49.426;8.396;2024-02-16T13:46:49;9.88;;;2.33;;
52686;SDS011;38584;49.426;8.396;2024-02-16T13:49:14;9.25;;;2.30;;
52686;SDS011;38584;49.426;8.396;2024-02-16T13:51:40;9.45;;;2.45;;
52686;SDS011;38584;49.426;8.396;2024-02-16T13:54:06;13.57;;;2.50;;
52686;SDS011;38584;49.426;8.396;2024-02-16T13:56:31;8.18;;;2.20;;
52686;SDS011;38584;49.426;8.396;2024-02-16T13:58:57;11.00;;;2.30;;
52686;SDS011;38584;49.426;8.396;2024-02-16T14:01:22;7.32;;;2.00;;
52686;SDS011;38584;49.426;8.396;2024-02-16T14:03:49;9.65;;;2.17;;
52686;SDS011;38584;49.426;8.396;2024-02-16T14:06:17;8.35;;;2.17;;
52686;SDS011;38584;49.426;8.396;2024-02-16T14:08:43;9.35;;;2.30;;
52686;SDS011;38584;49.426;8.396;2024-02-16T14:11:08;7.88;;;2.05;;
52686;SDS011;38584;49.426;8.396;2024-02-16T14:13:34;16.17;;;2.38;;
52686;SDS011;38584;49.426;8.396;2024-02-16T14:15:59;10.93;;;2.22;;
52686;SDS011;38584;49.426;8.396;2024-02-16T14:18:25;7.60;;;1.90;;
52686;SDS011;38584;49.426;8.396;2024-02-16T14:20:50;10.05;;;2.20;;
52686;SDS011;38584;49.426;8.396;2024-02-16T14:23:18;7.97;;;1.85;;
52686;SDS011;38584;49.426;8.396;2024-02-16T14:25:44;11.88;;;2.22;;
52686;SDS011;38584;49.426;8.396;2024-02-16T14:28:10;9.20;;;2.38;;
52686;SDS011;38584;49.426;8.396;2024-02-16T14:30:35;8.38;;;2.17;;
52686;SDS011;38584;49.426;8.396;2024-02-16T14:33:01;8.93;;;2.30;;
52686;SDS011;38584;49.426;8.396;2024-02-16T14:35:29;7.63;;;2.13;;